createdAt,value
2022-11-17T00:02:16.259Z,10.30
2022-11-17T00:04:45.825Z,10.30
2022-11-17T00:07:13.942Z,10.40
2022-11-17T00:09:43.435Z,10.40
2022-11-17T00:12:32.835Z,10.40
2022-11-17T00:15:01.286Z,10.40
2022-11-17T00:17:29.446Z,10.50
2022-11-17T00:20:14.931Z,10.50
2022-11-17T00:22:42.937Z,10.50
2022-11-17T00:25:12.927Z,10.50
2022-11-17T00:27:40.951Z,10.40
2022-11-17T00:30:29.971Z,10.50
2022-11-17T00:33:19.741Z,10.50
2022-11-17T00:35:52.653Z,10.40
2022-11-17T00:38:21.341Z,10.40
2022-11-17T00:40:50.702Z,10.30
2022-11-17T00:43:18.701Z,10.30
2022-11-17T00:45:46.885Z,10.30
2022-11-17T00:48:15.172Z,10.40
2022-11-17T00:50:43.250Z,10.40
2022-11-17T00:53:11.308Z,10.40
2022-11-17T00:55:39.417Z,10.40
2022-11-17T00:58:09.220Z,10.40
2022-11-17T01:00:37.234Z,10.40
2022-11-17T01:03:05.485Z,10.40
2022-11-17T01:05:35.779Z,10.40
2022-11-17T01:08:03.847Z,10.40
2022-11-17T01:10:31.950Z,10.40
2022-11-17T01:12:59.892Z,10.50
2022-11-17T01:15:29.925Z,10.50
2022-11-17T01:17:57.941Z,10.30
2022-11-17T01:23:43.440Z,10.30
2022-11-17T01:26:13.959Z,10.30
2022-11-17T01:28:42.862Z,10.40
2022-11-17T01:31:15.659Z,10.30
2022-11-17T01:33:49.534Z,10.30
2022-11-17T01:36:21.901Z,10.30
2022-11-17T01:38:50.172Z,10.30
2022-11-17T01:41:20.336Z,10.40
2022-11-17T01:43:50.297Z,10.40
2022-11-17T01:46:35.068Z,10.40
2022-11-17T01:49:14.220Z,10.40
2022-11-17T01:51:46.809Z,10.40
2022-11-17T01:54:17.618Z,10.40
2022-11-17T01:56:48.129Z,10.50
2022-11-17T01:59:22.419Z,10.50
2022-11-17T02:01:56.577Z,10.40
2022-11-17T02:04:26.954Z,10.40
2022-11-17T02:07:01.959Z,10.40
2022-11-17T02:09:30.562Z,10.40
2022-11-17T02:12:00.272Z,10.40
2022-11-17T02:14:29.044Z,10.40
2022-11-17T02:17:04.835Z,10.50
2022-11-17T02:19:41.042Z,10.50
2022-11-17T02:22:33.568Z,10.50
2022-11-17T02:25:28.061Z,10.50
2022-11-17T02:28:10.405Z,10.50
2022-11-17T02:31:08.613Z,10.60
2022-11-17T02:33:48.044Z,10.60
2022-11-17T02:36:22.380Z,10.60
2022-11-17T02:39:51.560Z,10.50
2022-11-17T02:42:48.866Z,10.50
2022-11-17T02:45:23.120Z,10.40
2022-11-17T02:47:54.672Z,10.40
2022-11-17T02:50:28.237Z,10.40
2022-11-17T02:52:57.555Z,10.40
2022-11-17T02:55:25.867Z,10.40
2022-11-17T02:57:56.829Z,10.40
2022-11-17T03:00:28.357Z,10.40
2022-11-17T03:03:11.427Z,10.40
2022-11-17T03:09:17.961Z,10.40
2022-11-17T03:11:58.942Z,10.30
2022-11-17T03:15:02.161Z,10.30
2022-11-17T03:17:53.544Z,10.30
2022-11-17T03:20:28.504Z,10.30
2022-11-17T03:23:21.189Z,10.30
2022-11-17T03:25:59.504Z,10.30
2022-11-17T03:28:46.222Z,10.30
2022-11-17T03:31:17.724Z,10.30
2022-11-17T03:33:51.040Z,10.30
2022-11-17T03:36:23.637Z,10.30
2022-11-17T03:38:58.458Z,10.40
2022-11-17T03:41:29.930Z,10.40
2022-11-17T03:43:59.943Z,10.40
2022-11-17T03:46:31.522Z,10.40
2022-11-17T03:49:07.333Z,10.40
2022-11-17T03:51:35.521Z,10.50
2022-11-17T03:54:03.667Z,10.40
2022-11-17T03:56:38.233Z,10.50
2022-11-17T03:59:14.834Z,10.40
2022-11-17T04:01:43.610Z,10.40
2022-11-17T04:04:16.407Z,10.40
2022-11-17T04:06:44.668Z,10.40
2022-11-17T04:09:12.688Z,10.50
2022-11-17T04:11:58.356Z,10.50
2022-11-17T04:14:43.766Z,10.60
2022-11-17T04:17:12.091Z,10.60
2022-11-17T04:19:41.677Z,10.60
2022-11-17T04:22:09.799Z,10.60
2022-11-17T04:24:38.055Z,10.60
2022-11-17T04:27:23.800Z,10.60
2022-11-17T04:29:51.866Z,10.50
2022-11-17T04:32:19.982Z,10.50
2022-11-17T04:34:49.559Z,10.40
2022-11-17T04:37:18.426Z,10.40
2022-11-17T04:39:49.175Z,10.40
2022-11-17T04:42:16.516Z,10.40
2022-11-17T04:44:44.553Z,10.50
2022-11-17T04:47:12.625Z,10.50
2022-11-17T04:49:40.926Z,10.50
2022-11-17T04:52:10.557Z,10.50
2022-11-17T04:57:22.950Z,10.60
2022-11-17T04:59:51.017Z,10.50
2022-11-17T05:02:19.159Z,10.50
2022-11-17T05:04:59.738Z,10.40
2022-11-17T05:07:28.692Z,10.40
2022-11-17T05:09:57.029Z,10.40
2022-11-17T05:12:44.245Z,10.30
2022-11-17T05:15:34.057Z,10.30
2022-11-17T05:18:02.300Z,10.30
2022-11-17T05:20:30.348Z,10.30
2022-11-17T05:23:16.461Z,10.30
2022-11-17T05:25:44.517Z,10.30
2022-11-17T05:28:14.773Z,10.30
2022-11-17T05:30:50.310Z,10.30
2022-11-17T05:33:19.428Z,10.30
2022-11-17T05:35:47.696Z,10.20
2022-11-17T05:38:16.044Z,10.20
2022-11-17T05:40:44.177Z,10.30
2022-11-17T05:43:13.720Z,10.30
2022-11-17T05:45:41.946Z,10.30
2022-11-17T05:48:09.985Z,10.30
2022-11-17T05:50:38.080Z,10.30
2022-11-17T05:53:06.406Z,10.40
2022-11-17T05:55:35.013Z,10.40
2022-11-17T05:58:06.157Z,10.30
2022-11-17T06:00:37.319Z,10.40
2022-11-17T06:03:09.554Z,10.40
2022-11-17T06:05:37.672Z,10.50
2022-11-17T06:08:06.421Z,10.60
2022-11-17T06:10:35.564Z,11.00
2022-11-17T06:13:05.453Z,10.90
2022-11-17T06:15:35.256Z,10.90
2022-11-17T06:18:06.753Z,10.80
2022-11-17T06:20:39.348Z,10.70
2022-11-17T06:23:09.127Z,10.60
2022-11-17T06:25:38.731Z,10.50
2022-11-17T06:28:11.058Z,10.50
2022-11-17T06:30:41.513Z,10.50
2022-11-17T06:33:11.175Z,10.50
2022-11-17T06:35:40.088Z,10.50
2022-11-17T06:38:08.573Z,10.50
2022-11-17T06:40:36.649Z,10.60
2022-11-17T06:43:08.569Z,10.70
2022-11-17T06:45:38.223Z,10.70
2022-11-17T06:48:09.525Z,10.70
2022-11-17T06:50:38.229Z,10.70
2022-11-17T06:53:08.370Z,10.70
2022-11-17T06:55:37.105Z,10.80
2022-11-17T06:58:07.588Z,10.70
2022-11-17T07:00:37.517Z,10.80
2022-11-17T07:03:09.243Z,10.80
2022-11-17T07:05:40.261Z,10.90
2022-11-17T07:08:10.016Z,10.90
2022-11-17T07:10:40.848Z,10.90
2022-11-17T07:13:11.847Z,10.90
2022-11-17T07:15:39.948Z,10.90
2022-11-17T07:18:09.388Z,10.90
2022-11-17T07:20:37.507Z,11.00
2022-11-17T07:23:05.657Z,11.10
2022-11-17T07:25:33.915Z,11.20
2022-11-17T07:28:02.112Z,11.30
2022-11-17T07:30:30.388Z,11.30
2022-11-17T07:33:00.252Z,11.20
2022-11-17T07:35:30.327Z,11.10
2022-11-17T07:38:01.442Z,11.00
2022-11-17T07:40:30.096Z,11.00
2022-11-17T07:42:58.276Z,10.90
2022-11-17T07:45:31.754Z,10.90
2022-11-17T07:48:02.098Z,10.90
2022-11-17T07:50:31.758Z,10.90
2022-11-17T07:53:00.118Z,10.90
2022-11-17T07:55:28.305Z,10.90
2022-11-17T07:57:58.077Z,10.90
2022-11-17T08:00:27.298Z,11.00
2022-11-17T08:02:55.380Z,10.90
2022-11-17T08:05:24.425Z,10.80
2022-11-17T08:07:58.048Z,10.80
2022-11-17T08:10:27.092Z,10.60
2022-11-17T08:12:55.725Z,10.60
2022-11-17T08:15:23.950Z,10.60
2022-11-17T08:17:54.435Z,10.60
2022-11-17T08:20:23.819Z,10.50
2022-11-17T08:22:53.169Z,10.50
2022-11-17T08:25:24.793Z,10.50
2022-11-17T08:27:56.122Z,10.50
2022-11-17T08:30:24.946Z,10.60
2022-11-17T08:32:54.778Z,10.50
2022-11-17T08:35:24.344Z,10.50
2022-11-17T08:37:52.969Z,10.50
2022-11-17T08:40:22.962Z,10.50
2022-11-17T08:43:00.322Z,10.50
2022-11-17T08:45:28.682Z,10.60
2022-11-17T08:47:57.651Z,10.60
2022-11-17T08:50:26.154Z,10.60
2022-11-17T08:52:54.471Z,10.70
2022-11-17T08:55:26.355Z,10.70
2022-11-17T08:57:56.001Z,10.80
2022-11-17T09:00:24.287Z,10.80
2022-11-17T09:02:52.304Z,10.90
2022-11-17T09:05:21.063Z,11.00
2022-11-17T09:07:49.453Z,11.10
2022-11-17T09:10:17.926Z,11.20
2022-11-17T09:12:47.429Z,11.20
2022-11-17T09:15:15.478Z,11.20
2022-11-17T09:17:47.672Z,11.20
2022-11-17T09:20:16.544Z,11.30
2022-11-17T09:22:44.535Z,11.30
2022-11-17T09:25:13.666Z,11.40
2022-11-17T09:27:42.101Z,11.40
2022-11-17T09:30:12.582Z,11.50
2022-11-17T09:32:40.601Z,11.50
2022-11-17T09:35:09.378Z,11.60
2022-11-17T09:37:37.472Z,11.70
2022-11-17T09:40:06.175Z,11.70
2022-11-17T09:42:39.842Z,11.80
2022-11-17T09:45:17.287Z,11.80
2022-11-17T09:47:50.944Z,11.80
2022-11-17T09:50:24.554Z,11.90
2022-11-17T09:53:03.019Z,11.80
2022-11-17T09:55:35.055Z,11.90
2022-11-17T09:58:15.734Z,12.00
2022-11-17T10:00:49.046Z,11.90
2022-11-17T10:03:21.161Z,11.90
2022-11-17T10:05:50.420Z,12.00
2022-11-17T10:08:21.986Z,12.10
2022-11-17T10:10:52.099Z,12.10
2022-11-17T10:13:26.217Z,12.10
2022-11-17T10:15:58.544Z,12.10
2022-11-17T10:18:28.358Z,12.10
2022-11-17T10:20:56.508Z,12.00
2022-11-17T10:23:25.438Z,12.10
2022-11-17T10:25:59.105Z,12.20
2022-11-17T10:28:30.034Z,12.30
2022-11-17T10:31:01.810Z,12.60
2022-11-17T10:33:38.465Z,12.80
2022-11-17T10:36:14.315Z,12.90
2022-11-17T10:38:46.816Z,12.80
2022-11-17T10:41:19.137Z,12.70
2022-11-17T10:43:57.970Z,12.60
2022-11-17T10:46:32.126Z,12.60
2022-11-17T10:49:24.987Z,12.60
2022-11-17T10:52:06.731Z,12.50
2022-11-17T10:54:34.918Z,12.50
2022-11-17T10:57:08.928Z,12.50
2022-11-17T10:59:45.627Z,12.50
2022-11-17T11:02:30.584Z,12.40
2022-11-17T11:05:10.393Z,12.60
2022-11-17T11:07:39.377Z,12.60
2022-11-17T11:10:16.311Z,12.60
2022-11-17T11:12:49.052Z,12.60
2022-11-17T11:15:22.070Z,12.50
2022-11-17T11:17:52.399Z,12.50
2022-11-17T11:20:27.093Z,12.50
2022-11-17T11:23:00.785Z,12.50
2022-11-17T11:25:36.426Z,12.50
2022-11-17T11:28:19.087Z,12.50
2022-11-17T11:31:00.031Z,12.50
2022-11-17T11:33:37.471Z,12.40
2022-11-17T11:36:27.546Z,12.40
2022-11-17T11:39:00.669Z,12.40
2022-11-17T11:41:50.036Z,12.50
2022-11-17T11:44:41.034Z,12.60
2022-11-17T11:47:21.692Z,12.60
2022-11-17T11:49:56.368Z,12.50
2022-11-17T11:52:32.316Z,12.40
2022-11-17T11:55:02.411Z,12.50
2022-11-17T11:57:34.450Z,12.50
2022-11-17T12:00:06.303Z,12.50
2022-11-17T12:02:42.402Z,12.60
2022-11-17T12:05:22.267Z,12.60
2022-11-17T12:07:56.883Z,12.60
2022-11-17T12:10:31.671Z,12.50
2022-11-17T12:13:00.792Z,12.50
2022-11-17T12:15:33.998Z,12.40
2022-11-17T12:18:04.938Z,12.40
2022-11-17T12:20:56.340Z,12.40
2022-11-17T12:23:34.653Z,12.40
2022-11-17T12:26:03.897Z,12.50
2022-11-17T12:28:35.746Z,12.50
2022-11-17T12:31:09.980Z,12.50
2022-11-17T12:34:12.191Z,12.40
2022-11-17T12:36:43.089Z,12.50
2022-11-17T12:40:09.680Z,12.40
2022-11-17T12:42:58.082Z,12.50
2022-11-17T12:45:26.507Z,12.50
2022-11-17T12:48:18.160Z,12.50
2022-11-17T12:50:50.858Z,12.50
2022-11-17T12:53:49.292Z,12.50
2022-11-17T12:56:59.049Z,12.60
2022-11-17T13:00:02.536Z,12.60
2022-11-17T13:02:58.958Z,12.60
2022-11-17T13:05:28.651Z,12.60
2022-11-17T13:08:21.493Z,12.60
2022-11-17T13:10:51.494Z,12.60
2022-11-17T13:13:21.544Z,12.60
2022-11-17T13:15:54.365Z,12.60
2022-11-17T13:18:31.578Z,12.60
2022-11-17T13:21:00.470Z,12.60
2022-11-17T13:23:31.147Z,12.60
2022-11-17T13:26:21.142Z,12.60
2022-11-17T13:28:50.416Z,12.60
2022-11-17T13:31:21.180Z,12.50
2022-11-17T13:33:59.872Z,12.60
2022-11-17T13:36:28.423Z,12.60
2022-11-17T13:39:00.362Z,12.50
2022-11-17T13:41:35.054Z,12.60
2022-11-17T13:44:03.458Z,12.60
2022-11-17T13:46:31.614Z,12.50
2022-11-17T13:48:59.766Z,12.60
2022-11-17T13:51:32.915Z,12.60
2022-11-17T13:54:02.710Z,12.60
2022-11-17T13:56:36.182Z,12.60
2022-11-17T13:59:18.203Z,12.60
2022-11-17T14:01:46.573Z,12.60
2022-11-17T14:04:20.112Z,12.50
2022-11-17T14:06:57.064Z,12.60
2022-11-17T14:09:26.521Z,12.60
2022-11-17T14:11:56.349Z,12.60
2022-11-17T14:14:31.934Z,12.60
2022-11-17T14:17:11.977Z,12.60
2022-11-17T14:19:40.208Z,12.60
2022-11-17T14:22:30.873Z,12.60
2022-11-17T14:24:59.874Z,12.60
2022-11-17T14:27:41.665Z,12.50
2022-11-17T14:30:15.974Z,12.50
2022-11-17T14:32:44.042Z,12.50
2022-11-17T14:35:15.310Z,12.50
2022-11-17T14:37:43.474Z,12.60
2022-11-17T14:40:15.503Z,12.60
2022-11-17T14:42:45.747Z,12.60
2022-11-17T14:45:15.444Z,12.60
2022-11-17T14:47:44.279Z,12.60
2022-11-17T14:50:15.315Z,12.50
2022-11-17T14:52:46.462Z,12.60
2022-11-17T14:55:15.494Z,12.60
2022-11-17T14:57:45.125Z,12.50
2022-11-17T15:00:19.003Z,12.60
2022-11-17T15:02:49.344Z,12.60
2022-11-17T15:05:17.575Z,12.50
2022-11-17T15:07:45.785Z,12.50
2022-11-17T15:10:13.875Z,12.50
2022-11-17T15:12:41.977Z,12.50
2022-11-17T15:15:12.630Z,12.40
2022-11-17T15:17:40.680Z,12.50
2022-11-17T15:20:12.693Z,12.50
2022-11-17T15:22:40.930Z,12.50
2022-11-17T15:25:11.206Z,12.50
2022-11-17T15:27:39.413Z,12.40
2022-11-17T15:30:09.059Z,12.50
2022-11-17T15:32:39.381Z,12.50
2022-11-17T15:35:08.333Z,12.40
2022-11-17T15:37:36.462Z,12.40
2022-11-17T15:40:05.352Z,12.40
2022-11-17T15:42:33.408Z,12.30
2022-11-17T15:45:01.468Z,12.30
2022-11-17T15:47:29.682Z,12.30
2022-11-17T15:49:59.725Z,12.30
2022-11-17T15:52:48.523Z,12.30
2022-11-17T15:55:16.103Z,12.30
2022-11-17T15:57:44.372Z,12.30
2022-11-17T16:00:13.498Z,12.30
2022-11-17T16:02:42.554Z,12.30
2022-11-17T16:05:12.114Z,12.20
2022-11-17T16:07:40.854Z,12.20
2022-11-17T16:10:09.685Z,12.20
2022-11-17T16:12:38.045Z,12.20
2022-11-17T16:15:08.487Z,12.30
2022-11-17T16:17:36.582Z,12.30
2022-11-17T16:20:05.210Z,12.20
2022-11-17T16:22:36.191Z,12.10
2022-11-17T16:25:05.659Z,12.10
2022-11-17T16:27:34.102Z,12.10
2022-11-17T16:30:02.211Z,12.00
2022-11-17T16:32:32.065Z,12.00
2022-11-17T16:35:00.104Z,12.00
2022-11-17T16:37:28.220Z,11.90
2022-11-17T16:39:57.704Z,11.80
2022-11-17T16:42:25.886Z,11.80
2022-11-17T16:44:53.989Z,11.80
2022-11-17T16:47:22.048Z,11.70
2022-11-17T16:49:51.876Z,11.70
2022-11-17T16:52:20.096Z,11.60
2022-11-17T16:54:48.109Z,11.50
2022-11-17T16:57:17.503Z,11.50
2022-11-17T16:59:45.658Z,11.40
2022-11-17T17:02:14.196Z,11.20
2022-11-17T17:04:42.279Z,11.00
2022-11-17T17:07:10.552Z,10.90
2022-11-17T17:09:38.775Z,10.90
2022-11-17T17:12:07.371Z,11.00
2022-11-17T17:14:36.817Z,10.90
2022-11-17T17:17:04.913Z,11.00
2022-11-17T17:19:32.986Z,10.90
2022-11-17T17:22:01.847Z,10.90
2022-11-17T17:24:33.516Z,10.90
2022-11-17T17:27:02.782Z,10.80
2022-11-17T17:29:34.038Z,10.80
2022-11-17T17:32:07.143Z,10.70
2022-11-17T17:34:36.556Z,10.80
2022-11-17T17:37:06.110Z,10.80
2022-11-17T17:39:35.789Z,10.80
2022-11-17T17:42:04.586Z,10.70
2022-11-17T17:44:35.025Z,10.70
2022-11-17T17:47:08.725Z,10.70
2022-11-17T17:49:37.907Z,10.70
2022-11-17T17:52:12.414Z,10.80
2022-11-17T17:54:42.036Z,10.80
2022-11-17T17:57:10.760Z,11.00
2022-11-17T17:59:38.840Z,10.90
2022-11-17T18:02:08.313Z,11.00
2022-11-17T18:04:36.420Z,10.90
2022-11-17T18:07:04.456Z,10.90
2022-11-17T18:09:32.634Z,10.90
2022-11-17T18:12:00.762Z,10.80
2022-11-17T18:14:28.956Z,10.80
2022-11-17T18:16:57.026Z,10.80
2022-11-17T18:19:31.560Z,10.90
2022-11-17T18:22:01.222Z,11.00
2022-11-17T18:24:29.587Z,11.00
2022-11-17T18:26:57.820Z,11.00
2022-11-17T18:29:26.036Z,11.00
2022-11-17T18:31:54.604Z,10.90
2022-11-17T18:34:24.175Z,10.90
2022-11-17T18:36:56.039Z,10.90
2022-11-17T18:39:24.482Z,10.80
2022-11-17T18:41:52.953Z,10.80
2022-11-17T18:44:21.030Z,10.80
2022-11-17T18:46:49.345Z,10.70
2022-11-17T18:49:17.787Z,10.60
2022-11-17T18:51:46.231Z,10.60
2022-11-17T18:54:15.711Z,10.50
2022-11-17T18:56:44.493Z,10.50
2022-11-17T18:59:13.043Z,10.40
2022-11-17T19:01:43.055Z,10.40
2022-11-17T19:04:12.652Z,10.30
2022-11-17T19:06:40.866Z,10.30
2022-11-17T19:09:09.453Z,10.30
2022-11-17T19:11:39.211Z,10.20
2022-11-17T19:14:07.644Z,10.10
2022-11-17T19:16:44.156Z,10.10
2022-11-17T19:19:14.464Z,10.20
2022-11-17T19:21:43.776Z,10.10
2022-11-17T19:24:12.104Z,10.10
2022-11-17T19:26:42.709Z,10.10
2022-11-17T19:29:16.614Z,10.20
2022-11-17T19:31:46.138Z,10.10
2022-11-17T19:34:14.597Z,10.10
2022-11-17T19:36:44.331Z,10.10
2022-11-17T19:39:14.415Z,10.00
2022-11-17T19:41:45.256Z,9.90
2022-11-17T19:44:13.718Z,9.80
2022-11-17T19:46:42.641Z,9.80
2022-11-17T19:49:12.471Z,9.80
2022-11-17T19:51:41.457Z,9.60
2022-11-17T19:54:10.593Z,9.60
2022-11-17T19:56:39.314Z,9.70
2022-11-17T19:59:15.180Z,9.70
2022-11-17T20:01:44.619Z,9.70
2022-11-17T20:04:13.017Z,9.70
2022-11-17T20:06:41.562Z,9.70
2022-11-17T20:09:10.833Z,9.60
2022-11-17T20:11:40.561Z,9.60
2022-11-17T20:14:11.329Z,9.50
2022-11-17T20:16:39.717Z,9.40
2022-11-17T20:19:08.286Z,9.40
2022-11-17T20:21:36.354Z,9.40
2022-11-17T20:24:04.577Z,9.30
2022-11-17T20:26:35.059Z,9.30
2022-11-17T20:29:03.241Z,9.20
2022-11-17T20:31:35.162Z,9.10
2022-11-17T20:34:05.323Z,9.10
2022-11-17T20:36:35.085Z,9.00
2022-11-17T20:39:05.126Z,9.10
2022-11-17T20:41:33.405Z,9.10
2022-11-17T20:44:03.146Z,9.00
2022-11-17T20:46:32.780Z,9.00
2022-11-17T20:49:01.008Z,8.80
2022-11-17T20:51:30.068Z,8.80
2022-11-17T20:53:58.300Z,8.80
2022-11-17T20:56:26.459Z,8.80
2022-11-17T20:58:54.503Z,8.70
2022-11-17T21:01:24.187Z,8.70
2022-11-17T21:03:54.440Z,8.70
2022-11-17T21:06:23.416Z,8.60
2022-11-17T21:08:51.627Z,8.60
2022-11-17T21:11:34.938Z,8.60
2022-11-17T21:14:03.450Z,8.60
2022-11-17T21:16:31.681Z,8.60
2022-11-17T21:19:01.589Z,8.60
2022-11-17T21:21:29.733Z,8.60
2022-11-17T21:23:57.802Z,8.50
2022-11-17T21:26:26.003Z,8.60
2022-11-17T21:28:54.091Z,8.50
2022-11-17T21:31:23.774Z,8.50
2022-11-17T21:33:54.305Z,8.60
2022-11-17T21:36:25.103Z,8.60
2022-11-17T21:38:54.194Z,8.60
2022-11-17T21:41:23.995Z,8.70
2022-11-17T21:43:53.493Z,8.70
2022-11-17T21:46:23.082Z,8.80
2022-11-17T21:48:52.503Z,8.70
2022-11-17T21:51:23.813Z,8.80
2022-11-17T21:53:54.078Z,8.90
2022-11-17T21:56:25.578Z,9.00
2022-11-17T21:58:55.772Z,9.00
2022-11-17T22:01:24.560Z,9.00
2022-11-17T22:03:52.841Z,9.00
2022-11-17T22:06:24.659Z,8.80
2022-11-17T22:08:54.328Z,8.80
2022-11-17T22:11:36.550Z,8.70
2022-11-17T22:14:09.988Z,8.70
2022-11-17T22:16:39.593Z,8.60
2022-11-17T22:19:08.312Z,8.70
2022-11-17T22:21:38.764Z,8.70
2022-11-17T22:24:08.660Z,8.70
2022-11-17T22:26:38.292Z,8.60
2022-11-17T22:29:07.965Z,8.60
2022-11-17T22:31:36.080Z,8.60
2022-11-17T22:37:31.990Z,8.50
2022-11-17T22:40:00.045Z,8.50
2022-11-17T22:42:28.115Z,8.40
2022-11-17T22:44:56.173Z,8.50
2022-11-17T22:47:24.459Z,8.50
2022-11-17T22:49:52.584Z,8.50
2022-11-17T22:52:21.093Z,8.50
2022-11-17T22:54:50.727Z,8.60
2022-11-17T22:57:18.802Z,8.70
2022-11-17T22:59:47.074Z,8.60
2022-11-17T23:02:15.168Z,8.60
2022-11-17T23:04:43.383Z,8.60
2022-11-17T23:07:11.553Z,8.70
2022-11-17T23:09:39.843Z,8.70
2022-11-17T23:12:09.889Z,8.70
2022-11-17T23:14:37.921Z,8.70
2022-11-17T23:17:06.061Z,8.80
2022-11-17T23:19:34.116Z,8.80
2022-11-17T23:22:02.155Z,8.80
2022-11-17T23:24:30.240Z,8.80
2022-11-17T23:26:58.398Z,8.80
2022-11-17T23:29:28.972Z,8.80
2022-11-17T23:31:57.000Z,8.70
2022-11-17T23:34:25.042Z,8.60
2022-11-17T23:36:53.126Z,8.60
2022-11-17T23:39:21.394Z,8.70
2022-11-17T23:41:49.682Z,8.60
2022-11-17T23:44:18.168Z,8.60
2022-11-17T23:46:47.865Z,8.60
2022-11-17T23:49:16.420Z,8.70
2022-11-17T23:51:45.064Z,8.60
2022-11-17T23:54:13.948Z,8.60
2022-11-17T23:56:43.369Z,8.60
2022-11-17T23:59:11.715Z,8.50
